createdAt,value
2018-09-02T00:00:46.524Z,14.55
2018-09-02T00:03:14.676Z,15.93
2018-09-02T00:05:42.805Z,17.10
2018-09-02T00:08:10.946Z,15.45
2018-09-02T00:10:39.121Z,13.85
2018-09-02T00:13:07.272Z,16.12
2018-09-02T00:15:35.436Z,15.68
2018-09-02T00:18:03.664Z,16.40
2018-09-02T00:20:31.901Z,15.08
2018-09-02T00:22:59.931Z,15.40
2018-09-02T00:25:28.086Z,16.15
2018-09-02T00:27:56.212Z,15.03
2018-09-02T00:30:24.429Z,13.35
2018-09-02T00:32:52.562Z,14.43
2018-09-02T00:35:20.733Z,13.62
2018-09-02T00:37:48.873Z,16.27
2018-09-02T00:40:17.051Z,17.62
2018-09-02T00:42:45.213Z,14.93
2018-09-02T00:45:13.388Z,21.35
2018-09-02T00:47:41.565Z,20.52
2018-09-02T00:50:09.922Z,19.60
2018-09-02T00:52:38.344Z,21.45
2018-09-02T00:55:06.541Z,19.80
2018-09-02T00:57:34.743Z,17.32
2018-09-02T01:00:02.988Z,17.20
2018-09-02T01:02:31.867Z,20.55
2018-09-02T01:05:01.585Z,18.75
2018-09-02T01:07:29.776Z,17.20
2018-09-02T01:09:57.977Z,17.40
2018-09-02T01:12:26.113Z,19.48
2018-09-02T01:14:54.273Z,19.52
2018-09-02T01:17:22.416Z,19.75
2018-09-02T01:19:50.607Z,18.60
2018-09-02T01:22:18.754Z,20.75
2018-09-02T01:24:46.913Z,19.07
2018-09-02T01:27:15.036Z,18.70
2018-09-02T01:29:43.212Z,19.85
2018-09-02T01:32:11.377Z,20.20
2018-09-02T01:34:39.548Z,18.05
2018-09-02T01:37:07.701Z,19.10
2018-09-02T01:39:35.840Z,16.35
2018-09-02T01:42:04.031Z,19.20
2018-09-02T01:44:32.151Z,18.77
2018-09-02T01:47:00.304Z,19.10
2018-09-02T01:49:28.472Z,19.57
2018-09-02T01:51:56.633Z,15.90
2018-09-02T01:54:24.801Z,17.73
2018-09-02T01:56:53.005Z,17.00
2018-09-02T01:59:21.149Z,19.40
2018-09-02T02:01:49.316Z,19.32
2018-09-02T02:04:17.479Z,16.75
2018-09-02T02:06:45.691Z,14.20
2018-09-02T02:09:13.882Z,15.20
2018-09-02T02:11:42.183Z,14.60
2018-09-02T02:14:11.449Z,14.18
2018-09-02T02:16:39.598Z,13.53
2018-09-02T02:19:07.771Z,13.60
2018-09-02T02:21:36.012Z,15.35
2018-09-02T02:24:04.174Z,15.53
2018-09-02T02:26:32.323Z,14.50
2018-09-02T02:29:00.467Z,14.07
2018-09-02T02:31:29.342Z,14.53
2018-09-02T02:33:57.510Z,16.60
2018-09-02T02:36:25.656Z,15.88
2018-09-02T02:38:53.795Z,15.32
2018-09-02T02:41:21.946Z,15.68
2018-09-02T02:43:50.125Z,15.48
2018-09-02T02:46:18.269Z,15.55
2018-09-02T02:48:46.413Z,16.17
2018-09-02T02:51:14.548Z,15.75
2018-09-02T02:53:42.748Z,20.50
2018-09-02T02:56:10.901Z,18.25
2018-09-02T02:58:39.013Z,17.73
2018-09-02T03:01:07.161Z,17.87
2018-09-02T03:03:35.335Z,20.52
2018-09-02T03:06:03.480Z,19.40
2018-09-02T03:08:31.632Z,18.15
2018-09-02T03:10:59.822Z,18.57
2018-09-02T03:13:27.997Z,19.70
2018-09-02T03:15:57.765Z,21.42
2018-09-02T03:18:28.080Z,23.07
2018-09-02T03:20:57.890Z,20.95
2018-09-02T03:23:27.329Z,21.70
2018-09-02T03:25:56.493Z,20.65
2018-09-02T03:28:26.019Z,20.75
2018-09-02T03:30:55.713Z,25.48
2018-09-02T03:33:28.755Z,18.73
2018-09-02T03:36:02.667Z,18.12
2018-09-02T03:38:32.367Z,17.95
2018-09-02T03:41:02.589Z,18.87
2018-09-02T03:43:31.443Z,17.10
2018-09-02T03:46:02.459Z,18.20
2018-09-02T03:48:32.073Z,18.25
2018-09-02T03:51:03.725Z,21.00
2018-09-02T03:53:33.430Z,19.55
2018-09-02T03:56:04.610Z,26.35
2018-09-02T03:58:34.252Z,21.15
2018-09-02T04:01:05.565Z,18.00
2018-09-02T04:03:35.456Z,19.32
2018-09-02T04:06:05.165Z,18.52
2018-09-02T04:08:35.186Z,23.40
2018-09-02T04:11:04.392Z,25.95
2018-09-02T04:13:33.564Z,24.92
2018-09-02T04:16:02.377Z,28.38
2018-09-02T04:18:30.990Z,23.40
2018-09-02T04:21:00.006Z,30.08
2018-09-02T04:23:29.245Z,30.52
2018-09-02T04:25:58.444Z,29.32
2018-09-02T04:28:27.739Z,36.17
2018-09-02T04:30:57.121Z,33.63
2018-09-02T04:33:26.470Z,32.95
2018-09-02T04:35:56.854Z,31.33
2018-09-02T04:38:28.183Z,32.88
2018-09-02T04:40:58.559Z,44.05
2018-09-02T04:43:26.896Z,42.80
2018-09-02T04:45:55.016Z,41.15
2018-09-02T04:48:23.140Z,40.75
2018-09-02T04:50:51.267Z,34.55
2018-09-02T04:53:19.388Z,35.05
2018-09-02T04:55:47.503Z,42.27
2018-09-02T04:58:15.633Z,36.25
2018-09-02T05:00:43.739Z,34.25
2018-09-02T05:03:11.872Z,33.28
2018-09-02T05:05:39.977Z,39.03
2018-09-02T05:08:08.111Z,36.88
2018-09-02T05:10:36.236Z,41.40
2018-09-02T05:13:04.372Z,35.65
2018-09-02T05:15:32.502Z,36.85
2018-09-02T05:18:00.642Z,37.63
2018-09-02T05:20:28.791Z,36.33
2018-09-02T05:22:56.971Z,42.80
2018-09-02T05:25:25.125Z,36.55
2018-09-02T05:27:53.281Z,35.00
2018-09-02T05:30:21.391Z,31.17
2018-09-02T05:32:49.519Z,37.75
2018-09-02T05:35:17.685Z,35.43
2018-09-02T05:37:45.868Z,37.42
2018-09-02T05:40:13.987Z,42.67
2018-09-02T05:42:42.109Z,39.05
2018-09-02T05:45:10.258Z,39.58
2018-09-02T05:47:38.461Z,39.13
2018-09-02T05:50:06.657Z,39.55
2018-09-02T05:52:34.808Z,41.80
2018-09-02T05:55:02.956Z,43.05
2018-09-02T05:57:31.153Z,36.53
2018-09-02T05:59:59.264Z,36.23
2018-09-02T06:02:27.421Z,35.20
2018-09-02T06:04:55.566Z,36.28
2018-09-02T06:07:23.730Z,33.83
2018-09-02T06:09:51.901Z,35.15
2018-09-02T06:12:20.060Z,35.90
2018-09-02T06:14:48.187Z,30.55
2018-09-02T06:17:16.378Z,29.85
2018-09-02T06:19:44.536Z,35.17
2018-09-02T06:22:12.668Z,30.88
2018-09-02T06:24:40.827Z,24.55
2018-09-02T06:27:08.946Z,25.80
2018-09-02T06:29:37.131Z,25.97
2018-09-02T06:32:05.284Z,26.87
2018-09-02T06:34:33.435Z,27.70
2018-09-02T06:37:01.651Z,26.17
2018-09-02T06:39:29.849Z,30.77
2018-09-02T06:41:58.046Z,22.95
2018-09-02T06:44:26.189Z,24.50
2018-09-02T06:46:54.368Z,23.52
2018-09-02T06:49:22.525Z,27.80
2018-09-02T06:51:50.701Z,24.00
2018-09-02T06:54:18.967Z,19.73
2018-09-02T06:56:47.157Z,23.40
2018-09-02T06:59:16.439Z,25.37
2018-09-02T07:01:44.643Z,19.10
2018-09-02T07:04:13.973Z,19.52
2018-09-02T07:06:42.203Z,22.02
2018-09-02T07:09:10.408Z,20.60
2018-09-02T07:11:38.716Z,19.60
2018-09-02T07:14:06.931Z,20.05
2018-09-02T07:16:35.352Z,17.27
2018-09-02T07:19:03.656Z,19.50
2018-09-02T07:21:33.671Z,20.00
2018-09-02T07:24:01.877Z,18.73
2018-09-02T07:26:30.053Z,15.93
2018-09-02T07:28:58.427Z,19.77
2018-09-02T07:31:26.676Z,17.67
2018-09-02T07:33:54.866Z,18.32
2018-09-02T07:36:24.118Z,14.95
2018-09-02T07:38:53.542Z,15.35
2018-09-02T07:41:21.838Z,13.65
2018-09-02T07:43:50.083Z,13.40
2018-09-02T07:46:18.292Z,14.23
2018-09-02T07:48:46.462Z,15.10
2018-09-02T07:51:14.647Z,14.38
2018-09-02T07:53:42.816Z,12.82
2018-09-02T07:56:10.989Z,13.15
2018-09-02T07:58:39.180Z,12.45
2018-09-02T08:01:07.394Z,13.03
2018-09-02T08:03:35.688Z,12.25
2018-09-02T08:06:03.965Z,12.50
2018-09-02T08:08:32.234Z,12.10
2018-09-02T08:11:00.361Z,10.43
2018-09-02T08:13:28.616Z,11.60
2018-09-02T08:15:56.924Z,11.35
2018-09-02T08:18:25.191Z,10.93
2018-09-02T08:20:53.342Z,9.30
2018-09-02T08:23:22.024Z,7.17
2018-09-02T08:25:50.232Z,11.37
2018-09-02T08:28:18.392Z,6.80
2018-09-02T08:30:46.550Z,7.37
2018-09-02T08:33:14.773Z,6.27
2018-09-02T08:35:42.962Z,7.60
2018-09-02T08:38:11.134Z,7.53
2018-09-02T08:40:39.349Z,5.80
2018-09-02T08:43:07.605Z,7.13
2018-09-02T08:45:35.845Z,6.83
2018-09-02T08:48:04.036Z,7.43
2018-09-02T08:50:32.311Z,5.60
2018-09-02T08:53:00.377Z,5.03
2018-09-02T08:55:28.661Z,6.30
2018-09-02T08:57:56.858Z,5.53
2018-09-02T09:00:25.157Z,6.60
2018-09-02T09:02:53.400Z,5.33
2018-09-02T09:05:21.701Z,8.37
2018-09-02T09:07:50.128Z,5.77
2018-09-02T09:10:18.112Z,8.07
2018-09-02T09:12:46.303Z,5.57
2018-09-02T09:15:14.532Z,5.83
2018-09-02T09:17:42.728Z,6.20
2018-09-02T09:20:11.101Z,5.53
2018-09-02T09:22:39.717Z,4.87
2018-09-02T09:25:09.120Z,4.70
2018-09-02T09:27:37.578Z,4.33
2018-09-02T09:30:07.700Z,4.90
2018-09-02T09:32:35.945Z,5.17
2018-09-02T09:35:04.280Z,4.53
2018-09-02T09:37:32.573Z,4.83
2018-09-02T09:40:00.844Z,3.80
2018-09-02T09:42:29.089Z,3.87
2018-09-02T09:44:57.326Z,4.93
2018-09-02T09:47:25.515Z,4.07
2018-09-02T09:49:53.801Z,4.53
2018-09-02T09:52:22.135Z,4.13
2018-09-02T09:54:50.361Z,4.53
2018-09-02T09:57:18.495Z,3.73
2018-09-02T09:59:46.734Z,3.90
2018-09-02T10:02:15.911Z,4.50
2018-09-02T10:04:44.163Z,6.60
2018-09-02T10:07:12.391Z,5.30
2018-09-02T10:09:40.557Z,3.83
2018-09-02T10:12:08.820Z,4.77
2018-09-02T10:14:37.035Z,4.13
2018-09-02T10:17:05.996Z,4.73
2018-09-02T10:19:34.263Z,4.03
2018-09-02T10:22:02.520Z,4.27
2018-09-02T10:24:30.741Z,3.80
2018-09-02T10:26:59.815Z,3.83
2018-09-02T10:29:28.036Z,3.90
2018-09-02T10:31:56.273Z,5.50
2018-09-02T10:34:24.432Z,3.97
2018-09-02T10:36:52.691Z,4.10
2018-09-02T10:39:20.931Z,4.80
2018-09-02T10:41:49.160Z,4.53
2018-09-02T10:44:17.546Z,5.87
2018-09-02T10:46:45.708Z,5.53
2018-09-02T10:49:13.869Z,3.73
2018-09-02T10:51:42.156Z,5.17
2018-09-02T10:54:10.310Z,5.30
2018-09-02T10:56:38.516Z,4.73
2018-09-02T10:59:07.005Z,4.40
2018-09-02T11:01:35.168Z,3.80
2018-09-02T11:04:03.356Z,3.90
2018-09-02T11:06:31.595Z,6.00
2018-09-02T11:08:59.794Z,3.80
2018-09-02T11:11:27.973Z,4.50
2018-09-02T11:13:56.385Z,4.70
2018-09-02T11:16:24.423Z,4.50
2018-09-02T11:18:52.594Z,3.87
2018-09-02T11:21:20.764Z,4.37
2018-09-02T11:23:49.823Z,3.73
2018-09-02T11:26:18.205Z,3.70
2018-09-02T11:28:46.414Z,3.63
2018-09-02T11:31:14.576Z,4.63
2018-09-02T11:33:42.757Z,4.17
2018-09-02T11:36:10.945Z,4.00
2018-09-02T11:38:39.094Z,3.73
2018-09-02T11:41:07.267Z,3.63
2018-09-02T11:43:35.540Z,5.20
2018-09-02T11:46:04.037Z,3.47
2018-09-02T11:48:32.276Z,4.00
2018-09-02T11:51:00.589Z,4.13
2018-09-02T11:53:28.919Z,3.67
2018-09-02T11:55:57.053Z,3.70
2018-09-02T11:58:26.232Z,4.40
2018-09-02T12:00:54.547Z,3.40
2018-09-02T12:03:22.929Z,4.27
2018-09-02T12:05:51.072Z,4.27
2018-09-02T12:08:19.291Z,4.90
2018-09-02T12:10:47.465Z,3.77
2018-09-02T12:13:15.713Z,3.90
2018-09-02T12:15:44.173Z,4.17
2018-09-02T12:18:12.337Z,4.20
2018-09-02T12:20:40.610Z,5.03
2018-09-02T12:23:08.800Z,4.33
2018-09-02T12:25:36.975Z,3.57
2018-09-02T12:28:05.254Z,3.50
2018-09-02T12:30:33.620Z,4.43
2018-09-02T12:33:01.800Z,3.93
2018-09-02T12:35:30.049Z,3.47
2018-09-02T12:37:58.205Z,4.50
2018-09-02T12:40:26.399Z,3.63
2018-09-02T12:42:54.562Z,3.90
2018-09-02T12:45:22.759Z,3.83
2018-09-02T12:47:50.986Z,3.40
2018-09-02T12:50:19.093Z,4.10
2018-09-02T12:52:47.353Z,3.50
2018-09-02T12:55:15.535Z,3.60
2018-09-02T12:57:43.772Z,3.87
2018-09-02T13:00:11.920Z,3.63
2018-09-02T13:02:40.076Z,4.00
2018-09-02T13:05:08.245Z,4.03
2018-09-02T13:07:36.559Z,2.80
2018-09-02T13:10:05.169Z,3.73
2018-09-02T13:12:33.469Z,3.87
2018-09-02T13:15:01.757Z,3.57
2018-09-02T13:17:29.928Z,3.80
2018-09-02T13:19:58.092Z,3.70
2018-09-02T13:22:26.269Z,4.23
2018-09-02T13:24:54.596Z,4.33
2018-09-02T13:30:06.466Z,3.30
2018-09-02T13:32:34.715Z,4.80
2018-09-02T13:35:02.868Z,5.60
2018-09-02T13:37:31.088Z,4.93
2018-09-02T13:39:59.251Z,4.67
2018-09-02T13:42:27.460Z,3.77
2018-09-02T13:44:55.603Z,2.70
2018-09-02T13:47:24.908Z,5.53
2018-09-02T13:49:53.318Z,3.10
2018-09-02T13:52:21.460Z,3.40
2018-09-02T13:54:49.903Z,6.10
2018-09-02T13:57:18.308Z,3.73
2018-09-02T13:59:46.662Z,3.40
2018-09-02T14:02:14.792Z,3.70
2018-09-02T14:04:43.056Z,2.97
2018-09-02T14:07:11.372Z,3.33
2018-09-02T14:09:39.539Z,3.60
2018-09-02T14:12:07.700Z,3.20
2018-09-02T14:17:26.676Z,3.40
2018-09-02T14:19:54.917Z,3.80
2018-09-02T14:22:23.099Z,3.63
2018-09-02T14:24:51.249Z,3.73
2018-09-02T14:27:19.408Z,2.97
2018-09-02T14:29:47.667Z,4.40
2018-09-02T14:32:15.903Z,3.23
2018-09-02T14:34:44.138Z,3.70
2018-09-02T14:37:12.297Z,3.10
2018-09-02T14:39:40.539Z,3.40
2018-09-02T14:42:08.694Z,3.50
2018-09-02T14:44:36.859Z,3.27
2018-09-02T14:47:05.028Z,3.30
2018-09-02T14:49:33.181Z,3.60
2018-09-02T14:52:01.348Z,3.90
2018-09-02T14:54:29.561Z,4.60
2018-09-02T14:56:57.728Z,3.70
2018-09-02T14:59:25.893Z,4.27
2018-09-02T15:01:54.055Z,5.27
2018-09-02T15:04:22.244Z,4.40
2018-09-02T15:06:50.410Z,3.50
2018-09-02T15:09:18.585Z,4.00
2018-09-02T15:11:46.786Z,3.77
2018-09-02T15:14:14.980Z,4.37
2018-09-02T15:16:43.156Z,3.77
2018-09-02T15:19:11.354Z,4.23
2018-09-02T15:21:39.548Z,5.60
2018-09-02T15:24:07.720Z,3.43
2018-09-02T15:26:35.871Z,4.13
2018-09-02T15:29:04.045Z,3.33
2018-09-02T15:31:32.236Z,3.77
2018-09-02T15:34:00.427Z,3.57
2018-09-02T15:36:28.608Z,3.43
2018-09-02T15:41:47.223Z,3.70
2018-09-02T15:44:15.520Z,3.87
2018-09-02T15:46:43.696Z,3.43
2018-09-02T15:49:12.122Z,3.47
2018-09-02T15:51:40.306Z,4.23
2018-09-02T15:54:08.461Z,3.50
2018-09-02T15:56:36.634Z,3.40
2018-09-02T15:59:04.986Z,4.10
2018-09-02T16:01:33.354Z,4.23
2018-09-02T16:04:01.518Z,3.13
2018-09-02T16:06:29.748Z,4.50
2018-09-02T16:09:04.399Z,4.00
2018-09-02T16:11:32.745Z,3.63
2018-09-02T16:14:01.081Z,3.93
2018-09-02T16:16:29.394Z,3.60
2018-09-02T16:18:57.951Z,3.57
2018-09-02T16:21:26.278Z,3.67
2018-09-02T16:23:54.713Z,4.03
2018-09-02T16:26:23.066Z,4.60
2018-09-02T16:28:51.405Z,4.20
2018-09-02T16:31:19.697Z,3.57
2018-09-02T16:33:48.223Z,3.63
2018-09-02T16:36:16.552Z,3.30
2018-09-02T16:38:45.627Z,4.10
2018-09-02T16:41:14.012Z,4.00
2018-09-02T16:43:42.358Z,4.00
2018-09-02T16:46:11.290Z,3.17
2018-09-02T16:48:39.592Z,3.97
2018-09-02T16:51:07.862Z,3.03
2018-09-02T16:53:36.139Z,4.30
2018-09-02T16:56:04.409Z,3.23
2018-09-02T16:58:32.838Z,4.50
2018-09-02T17:01:01.163Z,3.53
2018-09-02T17:03:34.508Z,3.70
2018-09-02T17:06:02.994Z,3.60
2018-09-02T17:08:31.325Z,3.37
2018-09-02T17:10:59.748Z,3.80
2018-09-02T17:13:28.730Z,5.07
2018-09-02T17:15:57.015Z,3.50
2018-09-02T17:18:25.331Z,3.60
2018-09-02T17:20:53.670Z,4.07
2018-09-02T17:23:22.023Z,3.40
2018-09-02T17:25:50.341Z,3.63
2018-09-02T17:28:18.605Z,3.50
2018-09-02T17:30:46.925Z,4.00
2018-09-02T17:33:15.503Z,3.90
2018-09-02T17:35:43.780Z,4.83
2018-09-02T17:38:12.139Z,3.53
2018-09-02T17:40:40.447Z,4.50
2018-09-02T17:43:08.807Z,4.50
2018-09-02T17:45:37.131Z,4.67
2018-09-02T17:48:05.394Z,4.77
2018-09-02T17:50:33.672Z,4.50
2018-09-02T17:53:01.956Z,3.73
2018-09-02T17:55:30.272Z,4.77
2018-09-02T17:57:58.563Z,4.53
2018-09-02T18:00:32.778Z,4.20
2018-09-02T18:03:01.220Z,4.43
2018-09-02T18:05:30.103Z,5.23
2018-09-02T18:07:58.393Z,4.30
2018-09-02T18:10:26.785Z,5.97
2018-09-02T18:12:55.310Z,4.90
2018-09-02T18:15:23.853Z,4.53
2018-09-02T18:17:52.623Z,5.17
2018-09-02T18:20:20.936Z,6.23
2018-09-02T18:22:50.060Z,5.30
2018-09-02T18:25:18.333Z,4.83
2018-09-02T18:27:49.637Z,6.00
2018-09-02T18:30:17.994Z,5.83
2018-09-02T18:32:48.505Z,5.50
2018-09-02T18:35:16.982Z,8.43
2018-09-02T18:37:45.329Z,6.20
2018-09-02T18:40:13.645Z,9.30
2018-09-02T18:42:42.004Z,8.23
2018-09-02T18:45:10.390Z,6.00
2018-09-02T18:47:38.807Z,7.20
2018-09-02T18:50:07.521Z,6.80
2018-09-02T18:52:35.887Z,6.00
2018-09-02T18:55:04.369Z,7.30
2018-09-02T18:57:32.715Z,7.27
2018-09-02T19:00:01.058Z,7.30
2018-09-02T19:02:29.496Z,6.80
2018-09-02T19:04:58.512Z,7.37
2018-09-02T19:07:27.312Z,13.10
2018-09-02T19:09:56.022Z,7.63
2018-09-02T19:12:24.277Z,6.87
2018-09-02T19:14:52.857Z,8.30
2018-09-02T19:20:11.426Z,7.37
2018-09-02T19:22:41.021Z,8.83
2018-09-02T19:25:10.129Z,7.60
2018-09-02T19:27:39.193Z,7.50
2018-09-02T19:30:08.630Z,8.10
2018-09-02T19:32:37.492Z,7.83
2018-09-02T19:35:25.221Z,8.57
2018-09-02T19:37:57.311Z,8.20
2018-09-02T19:41:00.504Z,9.50
2018-09-02T19:43:39.917Z,8.93
2018-09-02T20:06:42.599Z,8.80
2018-09-02T20:38:29.905Z,9.68
2018-09-02T20:41:51.969Z,9.20
2018-09-02T20:56:39.608Z,11.30
2018-09-02T21:11:49.549Z,10.70
2018-09-02T21:14:21.167Z,8.27
2018-09-02T21:16:50.495Z,15.50
2018-09-02T21:19:19.152Z,9.48
2018-09-02T21:21:48.969Z,9.55
2018-09-02T21:24:17.325Z,9.27
2018-09-02T21:26:45.640Z,9.98
2018-09-02T21:29:14.064Z,9.90
2018-09-02T21:31:43.605Z,8.80
2018-09-02T21:34:13.862Z,9.80
2018-09-02T21:36:43.409Z,10.07
2018-09-02T21:39:12.574Z,10.48
2018-09-02T21:41:41.199Z,11.08
2018-09-02T21:44:10.766Z,10.10
2018-09-02T21:46:38.973Z,9.80
2018-09-02T21:49:07.164Z,10.03
2018-09-02T21:51:35.577Z,8.68
2018-09-02T21:54:03.852Z,8.73
2018-09-02T21:56:32.284Z,9.45
2018-09-02T21:59:00.461Z,8.90
2018-09-02T22:01:28.652Z,7.80
2018-09-02T22:03:56.885Z,8.07
2018-09-02T22:06:25.009Z,8.83
2018-09-02T22:08:53.328Z,7.80
2018-09-02T22:11:21.538Z,8.30
2018-09-02T22:13:49.832Z,7.40
2018-09-02T22:16:18.061Z,7.50
2018-09-02T22:18:46.336Z,7.30
2018-09-02T22:21:14.687Z,6.67
2018-09-02T22:23:42.950Z,7.03
2018-09-02T22:26:11.107Z,6.40
2018-09-02T22:28:42.571Z,7.85
2018-09-02T22:31:10.888Z,7.47
2018-09-02T22:33:39.184Z,6.10
2018-09-02T22:36:07.408Z,5.90
2018-09-02T22:38:35.562Z,6.27
2018-09-02T22:41:03.893Z,6.40
2018-09-02T22:43:32.147Z,6.03
2018-09-02T22:46:00.376Z,6.70
2018-09-02T22:48:28.589Z,6.30
2018-09-02T22:50:56.813Z,6.27
2018-09-02T22:53:25.000Z,6.20
2018-09-02T22:55:53.306Z,5.42
2018-09-02T22:58:21.485Z,5.67
2018-09-02T23:00:49.692Z,5.63
2018-09-02T23:03:17.851Z,6.70
2018-09-02T23:05:46.037Z,5.67
2018-09-02T23:08:14.351Z,5.87
2018-09-02T23:10:43.048Z,5.70
2018-09-02T23:13:11.212Z,5.40
2018-09-02T23:15:39.431Z,6.60
2018-09-02T23:18:07.676Z,6.57
2018-09-02T23:20:35.845Z,5.80
2018-09-02T23:23:04.030Z,6.73
2018-09-02T23:25:32.252Z,6.50
2018-09-02T23:28:00.467Z,6.60
2018-09-02T23:30:28.624Z,6.10
2018-09-02T23:32:56.864Z,6.87
2018-09-02T23:35:25.069Z,6.83
2018-09-02T23:37:53.296Z,8.30
2018-09-02T23:40:21.474Z,6.70
2018-09-02T23:42:49.607Z,6.67
2018-09-02T23:45:17.847Z,7.63
2018-09-02T23:47:46.028Z,7.10
2018-09-02T23:50:14.204Z,7.63
2018-09-02T23:52:42.400Z,6.07
2018-09-02T23:55:11.039Z,7.78
2018-09-02T23:57:39.206Z,6.40
